Time;durP1;ratioP1;P1;durP2;ratioP2;P2;SDS_P1;SDS_P2;PMS_P1;PMS_P2;Temp;Humidity;BMP_temperature;BMP_pressure;BME280_temperature;BME280_humidity;BME280_pressure;Samples;Min_cycle;Max_cycle;Signal;HPM_P1;HPM_P2
2022/08/11 00:00:59;;;;;;;0.00;0.00;;;;;;;;;;12271287;19;20038;-66
2022/08/11 00:05:23;;;;;;;0.00;0.00;;;;;;;;;;12270206;19;20210;-66
2022/08/11 00:09:36;;;;;;;0.00;0.00;;;;;;;;;;12268943;19;20219;-64
2022/08/11 00:13:45;;;;;;;0.00;0.00;;;;;;;;;;12270509;19;20092;-66
2022/08/11 00:17:46;;;;;;;0.00;0.00;;;;;;;;;;12269521;19;19993;-65
2022/08/11 00:21:47;;;;;;;0.00;0.00;;;;;;;;;;12270107;19;20005;-65
2022/08/11 00:25:51;;;;;;;0.00;0.00;;;;;;;;;;12267289;19;20024;-65
2022/08/11 00:29:53;;;;;;;0.00;0.00;;;;;;;;;;12267565;19;19987;-65
2022/08/11 00:33:55;;;;;;;0.00;0.00;;;;;;;;;;12268319;19;19986;-65
2022/08/11 00:37:58;;;;;;;0.00;0.00;;;;;;;;;;12269259;19;20163;-64
2022/08/11 00:42:05;;;;;;;0.00;0.00;;;;;;;;;;12267205;19;19982;-65
2022/08/11 00:46:24;;;;;;;0.00;0.00;;;;;;;;;;12266440;19;20002;-64
2022/08/11 00:50:36;;;;;;;0.00;0.00;;;;;;;;;;12263161;19;19991;-65
2022/08/11 00:55:02;;;;;;;0.00;0.00;;;;;;;;;;12268455;19;19983;-65
2022/08/11 00:59:27;;;;;;;0.00;0.00;;;;;;;;;;12268163;19;19989;-65
2022/08/11 01:03:52;;;;;;;0.00;0.00;;;;;;;;;;12267771;19;19982;-65
2022/08/11 01:08:15;;;;;;;0.00;0.00;;;;;;;;;;12267184;19;19983;-65
2022/08/11 01:12:20;;;;;;;;;;;;;;;;;;12268095;19;20160;-65
2022/08/11 01:16:44;;;;;;;0.00;0.00;;;;;;;;;;12266839;19;20170;-65
2022/08/11 01:21:19;;;;;;;0.00;0.00;;;;;;;;;;12267314;19;20004;-65
2022/08/11 01:25:23;;;;;;;0.00;0.00;;;;;;;;;;12264340;19;19995;-65
2022/08/11 01:29:48;;;;;;;0.00;0.00;;;;;;;;;;12264419;19;19994;-65
2022/08/11 01:34:17;;;;;;;0.00;0.00;;;;;;;;;;12266822;19;20035;-65
2022/08/11 01:38:18;;;;;;;0.00;0.00;;;;;;;;;;12266457;19;20223;-65
2022/08/11 01:47:52;;;;;;;0.00;0.00;;;;;;;;;;12265886;19;20035;-65
2022/08/11 01:52:07;;;;;;;0.00;0.00;;;;;;;;;;12265161;19;20002;-65
2022/08/11 01:56:23;;;;;;;0.00;0.00;;;;;;;;;;12266336;19;19994;-65
2022/08/11 02:00:30;;;;;;;0.00;0.00;;;;;;;;;;12266096;19;20034;-65
2022/08/11 02:04:42;;;;;;;0.00;0.00;;;;;;;;;;12277088;19;19993;-65
2022/08/11 02:08:50;;;;;;;0.00;0.00;;;;;;;;;;12275469;19;19990;-65
2022/08/11 02:12:59;;;;;;;0.00;0.00;;;;;;;;;;12277394;19;20187;-65
2022/08/11 02:17:20;;;;;;;0.00;0.00;;;;;;;;;;12276231;19;20066;-65
2022/08/11 02:25:56;;;;;;;0.00;0.00;;;;;;;;;;12272446;19;20009;-65
2022/08/11 02:30:07;;;;;;;0.00;0.00;;;;;;;;;;12272629;19;20028;-65
2022/08/11 02:34:41;;;;;;;0.00;0.00;;;;;;;;;;12276074;19;19989;-65
2022/08/11 02:39:08;;;;;;;0.00;0.00;;;;;;;;;;12275015;19;20042;-65
2022/08/11 02:43:36;;;;;;;0.00;0.00;;;;;;;;;;12275790;19;19991;-65
2022/08/11 02:49:52;;;;;;;0.00;0.00;;;;;;;;;;12274782;19;20121;-65
2022/08/11 02:52:23;;;;;;;0.00;0.00;;;;;;;;;;12274036;19;20010;-65
2022/08/11 02:56:35;;;;;;;0.00;0.00;;;;;;;;;;12274835;19;19995;-65
2022/08/11 03:00:56;;;;;;;0.00;0.00;;;;;;;;;;12274602;19;19983;-65
2022/08/11 03:04:56;;;;;;;0.00;0.00;;;;;;;;;;12273639;19;20030;-65
2022/08/11 03:09:24;;;;;;;0.00;0.00;;;;;;;;;;12272477;19;19982;-65
2022/08/11 03:18:45;;;;;;;0.00;0.00;;;;;;;;;;12268278;19;19987;-65
2022/08/11 03:22:51;;;;;;;;;;;;;;;;;;12269261;19;20006;-65
2022/08/11 03:27:22;;;;;;;0.00;0.00;;;;;;;;;;12267673;19;19939;-65
2022/08/11 03:31:35;;;;;;;0.00;0.00;;;;;;;;;;12268152;19;19990;-65
2022/08/11 03:35:40;;;;;;;0.00;0.00;;;;;;;;;;12268743;19;19983;-65
2022/08/11 03:39:46;;;;;;;0.00;0.00;;;;;;;;;;12269012;19;19995;-65
2022/08/11 03:44:05;;;;;;;0.00;0.00;;;;;;;;;;12266682;19;20012;-65
2022/08/11 03:48:47;;;;;;;0.00;0.00;;;;;;;;;;12268704;19;19991;-65
2022/08/11 03:52:57;;;;;;;0.00;0.00;;;;;;;;;;12269319;19;19987;-65
2022/08/11 03:57:16;;;;;;;0.00;0.00;;;;;;;;;;12271414;19;20137;-65
2022/08/11 04:01:37;;;;;;;0.00;0.00;;;;;;;;;;12271194;19;19987;-65
2022/08/11 04:05:44;;;;;;;0.00;0.00;;;;;;;;;;12270874;19;19983;-65
2022/08/11 04:10:03;;;;;;;0.00;0.00;;;;;;;;;;12269498;19;19994;-66
2022/08/11 04:19:28;;;;;;;0.00;0.00;;;;;;;;;;12270658;19;19998;-65
2022/08/11 04:23:37;;;;;;;0.00;0.00;;;;;;;;;;12267989;19;20043;-65
2022/08/11 04:28:11;;;;;;;0.00;0.00;;;;;;;;;;12268379;19;19979;-66
2022/08/11 04:32:40;;;;;;;0.00;0.00;;;;;;;;;;12269516;19;20212;-66
2022/08/11 04:43:19;;;;;;;0.00;0.00;;;;;;;;;;12268460;19;20127;-66
2022/08/11 04:46:13;;;;;;;0.00;0.00;;;;;;;;;;12266377;19;20222;-66
2022/08/11 05:09:24;;;;;;;0.00;0.00;;;;;;;;;;12266109;19;19993;-66
2022/08/11 05:35:42;;;;;;;0.00;0.00;;;;;;;;;;12273377;19;20008;-66
2022/08/11 05:57:38;;;;;;;0.00;0.00;;;;;;;;;;12278782;19;20036;-66
2022/08/11 06:01:41;;;;;;;0.00;0.00;;;;;;;;;;12277755;19;20005;-66
2022/08/11 06:05:42;;;;;;;0.00;0.00;;;;;;;;;;12279701;19;20241;-65
2022/08/11 06:09:45;;;;;;;0.00;0.00;;;;;;;;;;12279636;19;20215;-66
2022/08/11 06:13:47;;;;;;;0.00;0.00;;;;;;;;;;12277330;19;19998;-66
2022/08/11 06:17:50;;;;;;;0.00;0.00;;;;;;;;;;12277009;19;20022;-66
2022/08/11 06:21:52;;;;;;;0.00;0.00;;;;;;;;;;12277535;19;20181;-65
2022/08/11 06:25:53;;;;;;;0.00;0.00;;;;;;;;;;12272602;19;19991;-65
2022/08/11 06:29:55;;;;;;;0.00;0.00;;;;;;;;;;12277833;19;20031;-66
2022/08/11 06:34:25;;;;;;;0.00;0.00;;;;;;;;;;12275929;19;19991;-67
2022/08/11 06:39:00;;;;;;;0.00;0.00;;;;;;;;;;12277678;19;20010;-65
2022/08/11 06:43:20;;;;;;;0.00;0.00;;;;;;;;;;12275690;19;20123;-65
2022/08/11 06:47:21;;;;;;;0.00;0.00;;;;;;;;;;12276363;19;20139;-66
2022/08/11 06:51:22;;;;;;;0.00;0.00;;;;;;;;;;12281245;19;20134;-66
2022/08/11 07:04:07;;;;;;;0.00;0.00;;;;;;;;;;12274597;19;20031;-64
2022/08/11 07:17:16;;;;;;;0.00;0.00;;;;;;;;;;12273053;19;20019;-65
2022/08/11 07:30:08;;;;;;;0.00;0.00;;;;;;;;;;12273964;19;20055;-66
2022/08/11 07:34:19;;;;;;;0.00;0.00;;;;;;;;;;12273541;19;19995;-65
2022/08/11 07:38:42;;;;;;;0.00;0.00;;;;;;;;;;12274654;19;20002;-65
2022/08/11 07:42:45;;;;;;;0.00;0.00;;;;;;;;;;12273279;19;19990;-65
2022/08/11 07:55:29;;;;;;;0.00;0.00;;;;;;;;;;12281357;19;20035;-67
2022/08/11 08:21:13;;;;;;;0.00;0.00;;;;;;;;;;12272418;19;20024;-67
2022/08/11 08:25:14;;;;;;;0.00;0.00;;;;;;;;;;12276329;19;20011;-67
2022/08/11 08:33:36;;;;;;;0.00;0.00;;;;;;;;;;12275232;19;20006;-67
2022/08/11 08:37:36;;;;;;;0.00;0.00;;;;;;;;;;12272241;19;20002;-64
2022/08/11 08:41:37;;;;;;;0.00;0.00;;;;;;;;;;12270863;19;19987;-67
2022/08/11 08:45:39;;;;;;;0.00;0.00;;;;;;;;;;12269756;19;19999;-66
2022/08/11 08:49:48;;;;;;;0.00;0.00;;;;;;;;;;12277139;19;20011;-67
2022/08/11 08:53:52;;;;;;;0.00;0.00;;;;;;;;;;12276359;19;20011;-67
2022/08/11 08:57:55;;;;;;;0.00;0.00;;;;;;;;;;12275615;19;20003;-66
2022/08/11 09:02:15;;;;;;;0.00;0.00;;;;;;;;;;12270134;19;20031;-65
2022/08/11 09:06:16;;;;;;;0.00;0.00;;;;;;;;;;12268080;19;20003;-66
2022/08/11 09:10:18;;;;;;;0.00;0.00;;;;;;;;;;12266330;19;19991;-67
2022/08/11 09:14:24;;;;;;;0.00;0.00;;;;;;;;;;12280818;19;19986;-67
2022/08/11 09:18:25;;;;;;;0.00;0.00;;;;;;;;;;12284315;19;20011;-66
2022/08/11 09:27:07;;;;;;;0.00;0.00;;;;;;;;;;12283269;19;20040;-67
2022/08/11 09:31:09;;;;;;;0.00;0.00;;;;;;;;;;12274974;19;20006;-66
2022/08/11 09:35:10;;;;;;;0.00;0.00;;;;;;;;;;12279656;19;19986;-66
2022/08/11 09:47:54;;;;;;;0.00;0.00;;;;;;;;;;12281471;19;19998;-67
2022/08/11 09:51:55;;;;;;;0.00;0.00;;;;;;;;;;12278193;19;20026;-67
2022/08/11 09:55:56;;;;;;;0.00;0.00;;;;;;;;;;12279649;19;19987;-66
2022/08/11 09:59:56;;;;;;;0.00;0.00;;;;;;;;;;12285552;19;20015;-64
2022/08/11 10:04:31;;;;;;;0.00;0.00;;;;;;;;;;12277312;19;20242;-66
2022/08/11 10:08:35;;;;;;;0.00;0.00;;;;;;;;;;12281390;19;20004;-65
2022/08/11 10:12:41;;;;;;;0.00;0.00;;;;;;;;;;12278714;19;20005;-65
2022/08/11 10:16:42;;;;;;;0.00;0.00;;;;;;;;;;12277319;19;20005;-66
2022/08/11 10:20:47;;;;;;;0.00;0.00;;;;;;;;;;12277268;19;20050;-65
2022/08/11 10:37:48;;;;;;;0.00;0.00;;;;;;;;;;12276857;19;20267;-66
2022/08/11 10:59:08;;;;;;;0.00;0.00;;;;;;;;;;12279204;19;20238;-65
2022/08/11 11:03:09;;;;;;;0.00;0.00;;;;;;;;;;12274178;19;19987;-66
2022/08/11 11:07:20;;;;;;;0.00;0.00;;;;;;;;;;12277087;19;20031;-67
2022/08/11 11:17:54;;;;;;;0.00;0.00;;;;;;;;;;12270897;19;20015;-66
2022/08/11 11:20:07;;;;;;;0.00;0.00;;;;;;;;;;12277608;19;20028;-66
2022/08/11 11:24:16;;;;;;;;;;;;;;;;;;12272314;19;20003;-66
2022/08/11 11:28:57;;;;;;;0.00;0.00;;;;;;;;;;12275379;19;19932;-66
2022/08/11 11:33:08;;;;;;;0.00;0.00;;;;;;;;;;12267030;19;20004;-67
2022/08/11 11:37:12;;;;;;;0.00;0.00;;;;;;;;;;12268303;19;19995;-66
2022/08/11 11:41:24;;;;;;;0.00;0.00;;;;;;;;;;12273685;19;20164;-66
2022/08/11 11:45:25;;;;;;;0.00;0.00;;;;;;;;;;12265829;19;20042;-66
2022/08/11 11:49:31;;;;;;;0.00;0.00;;;;;;;;;;12270665;19;20013;-67
2022/08/11 11:53:32;;;;;;;0.00;0.00;;;;;;;;;;12266916;19;20267;-67
2022/08/11 12:01:53;;;;;;;0.00;0.00;;;;;;;;;;12267725;19;19998;-67
2022/08/11 12:05:54;;;;;;;0.00;0.00;;;;;;;;;;12266113;19;19983;-67
2022/08/11 12:09:57;;;;;;;0.00;0.00;;;;;;;;;;12275262;19;20027;-67
2022/08/11 12:13:59;;;;;;;;;;;;;;;;;;12272249;19;19986;-67
2022/08/11 12:18:01;;;;;;;0.00;0.00;;;;;;;;;;12274355;19;19917;-66
2022/08/11 12:31:05;;;;;;;0.00;0.00;;;;;;;;;;12264327;19;20011;-66
2022/08/11 12:35:06;;;;;;;0.00;0.00;;;;;;;;;;12264962;19;20061;-66
2022/08/11 12:39:12;;;;;;;0.00;0.00;;;;;;;;;;12264453;19;20030;-66
2022/08/11 12:51:57;;;;;;;0.00;0.00;;;;;;;;;;12264801;19;20045;-66
2022/08/11 12:52:07;;;;;;;0.00;0.00;;;;;;;;;;12269521;19;20006;-67
2022/08/11 13:04:54;;;;;;;0.00;0.00;;;;;;;;;;12275084;19;20027;-67
2022/08/11 13:08:57;;;;;;;0.00;0.00;;;;;;;;;;12268161;19;19982;-66
2022/08/11 13:12:58;;;;;;;0.00;0.00;;;;;;;;;;12270052;19;20002;-66
2022/08/11 13:21:19;;;;;;;0.00;0.00;;;;;;;;;;12268231;19;20222;-66
2022/08/11 13:25:23;;;;;;;0.00;0.00;;;;;;;;;;12269743;19;20131;-65
2022/08/11 13:29:27;;;;;;;0.00;0.00;;;;;;;;;;12265248;19;19987;-66
2022/08/11 13:33:28;;;;;;;0.00;0.00;;;;;;;;;;12266777;19;19987;-66
2022/08/11 13:37:29;;;;;;;0.00;0.00;;;;;;;;;;12272678;19;20035;-66
2022/08/11 13:41:39;;;;;;;0.00;0.00;;;;;;;;;;12268020;19;20147;-66
2022/08/11 13:45:42;;;;;;;0.00;0.00;;;;;;;;;;12266473;19;20248;-66
2022/08/11 13:49:43;;;;;;;0.00;0.00;;;;;;;;;;12264767;19;20207;-66
2022/08/11 13:53:44;;;;;;;0.00;0.00;;;;;;;;;;12266555;19;20211;-66
2022/08/11 13:57:45;;;;;;;0.00;0.00;;;;;;;;;;12278598;19;20010;-66
2022/08/11 14:01:54;;;;;;;0.00;0.00;;;;;;;;;;12278458;19;20118;-67
2022/08/11 14:05:59;;;;;;;0.00;0.00;;;;;;;;;;12278670;19;19999;-60
2022/08/11 14:10:01;;;;;;;0.00;0.00;;;;;;;;;;12281294;19;19982;-58
2022/08/11 14:14:03;;;;;;;0.00;0.00;;;;;;;;;;12285595;19;19983;-62
2022/08/11 14:18:07;;;;;;;0.00;0.00;;;;;;;;;;12281522;19;19995;-62
2022/08/11 14:22:08;;;;;;;0.00;0.00;;;;;;;;;;12282802;19;19994;-61
2022/08/11 14:26:22;;;;;;;0.00;0.00;;;;;;;;;;12278177;19;19999;-59
2022/08/11 14:34:43;;;;;;;0.00;0.00;;;;;;;;;;12282590;19;20123;-58
2022/08/11 14:38:44;;;;;;;0.00;0.00;;;;;;;;;;12282082;19;20238;-61
2022/08/11 14:47:04;;;;;;;0.00;0.00;;;;;;;;;;12282567;19;20002;-59
2022/08/11 14:51:05;;;;;;;0.00;0.00;;;;;;;;;;12276620;19;20055;-62
2022/08/11 14:59:26;;;;;;;0.00;0.00;;;;;;;;;;12280478;19;20019;-61
2022/08/11 15:03:30;;;;;;;0.00;0.00;;;;;;;;;;12279765;19;19990;-61
2022/08/11 15:07:32;;;;;;;0.00;0.00;;;;;;;;;;12280239;19;19998;-62
2022/08/11 15:24:35;;;;;;;0.00;0.00;;;;;;;;;;12277295;19;20216;-58
2022/08/11 15:37:30;;;;;;;0.00;0.00;;;;;;;;;;12279628;19;20039;-63
2022/08/11 15:46:05;;;;;;;0.00;0.00;;;;;;;;;;12275648;19;20020;-63
2022/08/11 15:50:07;;;;;;;0.00;0.00;;;;;;;;;;12274455;19;20035;-63
2022/08/11 15:54:14;;;;;;;0.00;0.00;;;;;;;;;;12274464;19;19991;-62
2022/08/11 16:07:01;;;;;;;0.00;0.00;;;;;;;;;;12274834;19;20145;-58
2022/08/11 16:11:02;;;;;;;0.00;0.00;;;;;;;;;;12274484;19;19985;-60
2022/08/11 16:19:33;;;;;;;0.00;0.00;;;;;;;;;;12274021;19;20078;-61
2022/08/11 16:23:36;;;;;;;0.00;0.00;;;;;;;;;;12273677;19;20057;-60
2022/08/11 16:27:42;;;;;;;0.00;0.00;;;;;;;;;;12277455;19;20021;-65
2022/08/11 16:32:15;;;;;;;0.00;0.00;;;;;;;;;;12273217;19;20002;-62
2022/08/11 16:40:31;;;;;;;0.00;0.00;;;;;;;;;;12273745;19;20129;-62
2022/08/11 16:48:53;;;;;;;0.00;0.00;;;;;;;;;;12273603;19;20017;-62
2022/08/11 16:52:53;;;;;;;0.00;0.00;;;;;;;;;;12274567;19;20211;-62
2022/08/11 16:56:55;;;;;;;0.00;0.00;;;;;;;;;;12273810;19;20003;-61
2022/08/11 17:00:57;;;;;;;0.00;0.00;;;;;;;;;;12276425;19;20050;-62
2022/08/11 17:13:55;;;;;;;0.00;0.00;;;;;;;;;;12274558;19;20000;-61
2022/08/11 17:17:59;;;;;;;0.00;0.00;;;;;;;;;;12275461;19;20021;-61
2022/08/11 17:35:29;;;;;;;0.00;0.00;;;;;;;;;;12287278;19;20130;-57
2022/08/11 17:39:31;;;;;;;0.00;0.00;;;;;;;;;;12284708;19;19999;-60
2022/08/11 18:00:54;;;;;;;0.00;0.00;;;;;;;;;;12283962;19;20267;-61
2022/08/11 18:04:56;;;;;;;0.00;0.00;;;;;;;;;;12282161;19;20232;-61
